createdAt,value
2018-08-19T00:00:43.508Z,68.17
2018-08-19T00:03:12.303Z,67.82
2018-08-19T00:05:41.051Z,68.01
2018-08-19T00:08:09.495Z,69.93
2018-08-19T00:10:47.311Z,70.15
2018-08-19T00:13:15.820Z,70.63
2018-08-19T00:15:45.200Z,69.93
2018-08-19T00:18:13.650Z,71.09
2018-08-19T00:20:42.184Z,70.31
2018-08-19T00:23:10.674Z,71.21
2018-08-19T00:25:41.754Z,70.82
2018-08-19T00:28:12.004Z,71.32
2018-08-19T00:30:40.480Z,70.56
2018-08-19T00:33:09.564Z,70.82
2018-08-19T00:35:38.071Z,70.68
2018-08-19T00:38:13.184Z,70.15
2018-08-19T00:40:42.496Z,70.42
2018-08-19T00:43:11.041Z,72.47
2018-08-19T00:45:39.831Z,72.08
2018-08-19T00:48:10.735Z,72.07
2018-08-19T00:50:39.456Z,72.73
2018-08-19T00:53:09.283Z,72.33
2018-08-19T00:55:43.318Z,72.24
2018-08-19T00:58:18.975Z,72.07
2018-08-19T01:00:47.571Z,73.17
2018-08-19T01:03:16.026Z,72.52
2018-08-19T01:05:44.599Z,71.90
2018-08-19T01:08:14.598Z,72.82
2018-08-19T01:10:43.274Z,73.49
2018-08-19T01:13:13.171Z,72.51
2018-08-19T01:15:41.807Z,73.40
2018-08-19T01:18:10.397Z,73.08
2018-08-19T01:20:38.941Z,73.37
2018-08-19T01:23:07.463Z,73.83
2018-08-19T01:25:35.891Z,73.59
2018-08-19T01:28:04.485Z,74.02
2018-08-19T01:30:33.195Z,73.69
2018-08-19T01:33:01.711Z,73.66
2018-08-19T01:35:35.530Z,73.84
2018-08-19T01:38:04.083Z,74.37
2018-08-19T01:40:32.631Z,74.25
2018-08-19T01:43:01.287Z,73.43
2018-08-19T01:45:29.800Z,74.46
2018-08-19T01:47:58.326Z,74.65
2018-08-19T01:50:26.970Z,74.55
2018-08-19T01:52:55.423Z,74.89
2018-08-19T01:55:23.911Z,75.13
2018-08-19T01:57:52.674Z,75.63
2018-08-19T02:00:21.131Z,75.07
2018-08-19T02:03:00.590Z,74.61
2018-08-19T02:05:29.151Z,75.80
2018-08-19T02:07:59.735Z,74.92
2018-08-19T02:10:29.794Z,75.49
2018-08-19T02:12:59.009Z,75.52
2018-08-19T02:15:28.602Z,75.63
2018-08-19T02:18:04.770Z,75.64
2018-08-19T02:20:39.511Z,75.72
2018-08-19T02:23:09.826Z,77.45
2018-08-19T02:25:41.347Z,77.25
2018-08-19T02:28:10.725Z,76.54
2018-08-19T02:31:02.567Z,76.44
2018-08-19T02:33:33.615Z,76.58
2018-08-19T02:36:05.490Z,76.12
2018-08-19T02:38:34.411Z,76.61
2018-08-19T02:41:02.883Z,76.15
2018-08-19T02:43:31.435Z,76.92
2018-08-19T02:46:00.008Z,76.87
2018-08-19T02:48:42.812Z,77.06
2018-08-19T02:51:13.855Z,76.87
2018-08-19T02:53:43.863Z,76.78
2018-08-19T02:56:13.008Z,76.86
2018-08-19T02:58:42.407Z,76.65
2018-08-19T03:01:11.739Z,77.36
2018-08-19T03:03:40.352Z,77.29
2018-08-19T03:06:08.979Z,77.42
2018-08-19T03:08:43.867Z,77.03
2018-08-19T03:11:13.328Z,76.87
2018-08-19T03:13:41.827Z,77.25
2018-08-19T03:16:10.391Z,76.90
2018-08-19T03:18:38.848Z,77.22
2018-08-19T03:21:07.358Z,77.62
2018-08-19T03:23:35.978Z,77.65
2018-08-19T03:26:04.551Z,78.48
2018-08-19T03:28:33.011Z,78.11
2018-08-19T03:31:02.500Z,78.02
2018-08-19T03:33:31.674Z,78.45
2018-08-19T03:36:00.095Z,78.08
2018-08-19T03:38:28.887Z,77.95
2018-08-19T03:40:58.195Z,79.94
2018-08-19T03:43:26.632Z,78.52
2018-08-19T03:45:55.073Z,79.14
2018-08-19T03:48:23.503Z,78.21
2018-08-19T03:50:52.016Z,78.55
2018-08-19T03:53:20.450Z,78.78
2018-08-19T03:55:48.915Z,78.65
2018-08-19T03:58:17.374Z,78.82
2018-08-19T04:00:46.360Z,78.81
2018-08-19T04:03:20.923Z,79.43
2018-08-19T04:05:52.795Z,79.06
2018-08-19T04:08:21.330Z,79.43
2018-08-19T04:10:50.144Z,79.73
2018-08-19T04:13:34.639Z,79.79
2018-08-19T04:16:04.447Z,79.95
2018-08-19T04:18:35.292Z,79.35
2018-08-19T04:21:05.307Z,80.57
2018-08-19T04:23:34.474Z,80.04
2018-08-19T04:26:03.435Z,80.99
2018-08-19T04:28:35.685Z,80.76
2018-08-19T04:31:09.782Z,80.91
2018-08-19T04:33:41.155Z,81.68
2018-08-19T04:36:11.669Z,80.84
2018-08-19T04:38:40.312Z,81.75
2018-08-19T04:41:08.830Z,81.68
2018-08-19T04:43:37.251Z,82.00
2018-08-19T04:46:05.743Z,81.41
2018-08-19T04:48:34.179Z,80.74
2018-08-19T04:51:02.696Z,81.10
2018-08-19T04:53:32.850Z,82.65
2018-08-19T04:56:01.375Z,81.92
2018-08-19T04:58:29.913Z,81.97
2018-08-19T05:00:58.552Z,81.94
2018-08-19T05:03:26.963Z,81.49
2018-08-19T05:05:57.582Z,82.10
2018-08-19T05:08:26.332Z,81.77
2018-08-19T05:10:54.612Z,79.89
2018-08-19T05:13:23.390Z,77.92
2018-08-19T05:15:51.935Z,76.21
2018-08-19T05:18:20.401Z,74.04
2018-08-19T05:20:48.995Z,74.42
2018-08-19T05:23:17.479Z,73.40
2018-08-19T05:25:50.817Z,71.29
2018-08-19T05:28:19.459Z,71.19
2018-08-19T05:30:48.251Z,69.15
2018-08-19T05:33:16.855Z,68.37
2018-08-19T05:35:45.327Z,67.78
2018-08-19T05:38:13.800Z,66.67
2018-08-19T05:40:48.604Z,66.24
2018-08-19T05:43:17.115Z,65.71
2018-08-19T05:45:50.704Z,64.59
2018-08-19T05:48:19.215Z,65.66
2018-08-19T05:50:47.759Z,64.50
2018-08-19T05:53:16.327Z,63.65
2018-08-19T05:55:45.227Z,63.14
2018-08-19T05:58:13.688Z,62.74
2018-08-19T06:00:43.659Z,63.32
2018-08-19T06:03:12.086Z,64.01
2018-08-19T06:05:40.689Z,63.82
2018-08-19T06:08:10.819Z,63.36
2018-08-19T06:10:40.001Z,63.30
2018-08-19T06:13:09.626Z,64.15
2018-08-19T06:15:38.343Z,64.28
2018-08-19T06:18:07.044Z,65.68
2018-08-19T06:20:35.692Z,64.29
2018-08-19T06:23:04.251Z,64.62
2018-08-19T06:25:32.835Z,63.68
2018-08-19T06:28:01.300Z,63.32
2018-08-19T06:30:29.820Z,63.35
2018-08-19T06:32:58.303Z,64.25
2018-08-19T06:35:26.772Z,62.53
2018-08-19T06:37:55.307Z,63.08
2018-08-19T06:40:24.511Z,61.97
2018-08-19T06:42:52.984Z,63.62
2018-08-19T06:45:21.611Z,63.94
2018-08-19T06:47:50.091Z,64.94
2018-08-19T06:50:25.179Z,64.66
2018-08-19T06:52:54.624Z,65.04
2018-08-19T06:55:23.357Z,65.32
2018-08-19T06:57:51.859Z,64.66
2018-08-19T07:00:25.573Z,64.72
2018-08-19T07:02:54.592Z,64.44
2018-08-19T07:05:23.031Z,63.18
2018-08-19T07:07:51.503Z,62.94
2018-08-19T07:10:29.561Z,62.75
2018-08-19T07:13:03.339Z,63.00
2018-08-19T07:15:32.094Z,62.38
2018-08-19T07:18:00.682Z,61.85
2018-08-19T07:20:29.160Z,61.07
2018-08-19T07:22:57.804Z,60.93
2018-08-19T07:25:26.344Z,60.99
2018-08-19T07:27:54.807Z,60.61
2018-08-19T07:30:23.342Z,61.30
2018-08-19T07:32:51.815Z,61.12
2018-08-19T07:35:20.268Z,61.49
2018-08-19T07:37:48.871Z,59.95
2018-08-19T07:40:17.310Z,60.54
2018-08-19T07:42:45.710Z,58.74
2018-08-19T07:45:14.373Z,60.01
2018-08-19T07:47:42.914Z,58.35
2018-08-19T07:50:11.508Z,58.10
2018-08-19T07:52:40.154Z,57.68
2018-08-19T07:55:09.331Z,58.62
2018-08-19T07:57:41.327Z,58.40
2018-08-19T08:00:10.635Z,58.74
2018-08-19T08:02:39.191Z,57.08
2018-08-19T08:05:09.276Z,57.13
2018-08-19T08:07:39.843Z,56.33
2018-08-19T08:10:08.463Z,56.12
2018-08-19T08:12:36.963Z,55.73
2018-08-19T08:15:05.569Z,56.88
2018-08-19T08:17:34.356Z,55.74
2018-08-19T08:20:04.092Z,55.35
2018-08-19T08:22:33.627Z,54.44
2018-08-19T08:25:02.415Z,52.94
2018-08-19T08:27:32.012Z,53.31
2018-08-19T08:30:03.635Z,53.18
2018-08-19T08:32:32.215Z,53.62
2018-08-19T08:35:00.652Z,53.31
2018-08-19T08:37:29.115Z,52.07
2018-08-19T08:40:14.203Z,50.78
2018-08-19T08:42:44.159Z,49.25
2018-08-19T08:45:14.022Z,48.73
2018-08-19T08:47:43.009Z,47.48
2018-08-19T08:50:12.647Z,44.80
2018-08-19T08:52:44.222Z,45.41
2018-08-19T08:55:13.785Z,44.85
2018-08-19T08:57:42.299Z,47.74
2018-08-19T09:00:12.245Z,46.92
2018-08-19T09:02:40.896Z,47.86
2018-08-19T09:05:11.008Z,45.70
2018-08-19T09:07:40.281Z,45.96
2018-08-19T09:10:10.163Z,45.88
2018-08-19T09:12:53.875Z,44.96
2018-08-19T09:15:22.592Z,45.49
2018-08-19T09:17:51.187Z,43.88
2018-08-19T09:20:19.723Z,45.15
2018-08-19T09:22:48.662Z,43.37
2018-08-19T09:25:17.095Z,43.65
2018-08-19T09:27:45.583Z,43.69
2018-08-19T09:30:46.195Z,43.70
2018-08-19T09:33:15.048Z,43.63
2018-08-19T09:35:44.087Z,43.65
2018-08-19T09:38:18.335Z,41.96
2018-08-19T09:40:49.973Z,41.21
2018-08-19T09:43:18.752Z,42.14
2018-08-19T09:45:47.739Z,41.76
2018-08-19T09:48:16.703Z,41.51
2018-08-19T09:50:45.655Z,41.02
2018-08-19T09:53:14.247Z,41.46
2018-08-19T09:55:44.055Z,38.95
2018-08-19T09:58:16.472Z,39.14
2018-08-19T10:00:50.339Z,39.79
2018-08-19T10:03:18.989Z,39.61
2018-08-19T10:05:47.421Z,39.94
2018-08-19T10:08:15.931Z,39.13
2018-08-19T10:10:44.571Z,38.90
2018-08-19T10:13:15.622Z,38.77
2018-08-19T10:15:44.375Z,38.95
2018-08-19T10:18:12.869Z,37.74
2018-08-19T10:20:41.583Z,38.49
2018-08-19T10:23:10.085Z,39.18
2018-08-19T10:25:38.523Z,39.65
2018-08-19T10:28:07.282Z,39.28
2018-08-19T10:30:38.780Z,39.56
2018-08-19T10:33:09.237Z,39.37
2018-08-19T10:35:37.663Z,38.69
2018-08-19T10:38:06.503Z,37.86
2018-08-19T10:40:35.036Z,37.96
2018-08-19T10:43:08.010Z,37.07
2018-08-19T10:45:41.248Z,37.14
2018-08-19T10:48:11.226Z,36.80
2018-08-19T10:50:39.792Z,34.91
2018-08-19T10:53:15.547Z,36.56
2018-08-19T10:55:45.003Z,35.62
2018-08-19T10:58:13.479Z,35.50
2018-08-19T11:00:42.200Z,36.37
2018-08-19T11:03:20.123Z,35.63
2018-08-19T11:05:50.656Z,34.96
2018-08-19T11:08:19.123Z,33.83
2018-08-19T11:10:47.731Z,34.76
2018-08-19T11:13:19.405Z,34.25
2018-08-19T11:15:57.278Z,33.59
2018-08-19T11:18:32.715Z,32.76
2018-08-19T11:22:05.119Z,33.03
2018-08-19T11:24:34.295Z,32.51
2018-08-19T11:27:04.572Z,32.67
2018-08-19T11:29:39.983Z,33.52
2018-08-19T11:32:08.643Z,32.03
2018-08-19T11:34:37.271Z,30.82
2018-08-19T11:37:05.787Z,31.61
2018-08-19T11:39:39.580Z,31.24
2018-08-19T11:42:08.187Z,32.30
2018-08-19T11:44:36.947Z,32.19
2018-08-19T11:47:05.459Z,31.43
2018-08-19T11:49:33.975Z,30.54
2018-08-19T11:52:04.467Z,30.43
2018-08-19T11:54:33.819Z,31.03
2018-08-19T11:57:05.819Z,30.36
2018-08-19T11:59:38.387Z,31.08
2018-08-19T12:02:11.795Z,31.15
2018-08-19T12:04:40.243Z,31.79
2018-08-19T12:07:08.746Z,31.11
2018-08-19T12:09:37.345Z,30.39
2018-08-19T12:12:06.005Z,31.40
2018-08-19T12:14:36.267Z,30.79
2018-08-19T12:17:12.363Z,31.43
2018-08-19T12:19:42.560Z,30.20
2018-08-19T12:22:11.401Z,30.12
2018-08-19T12:24:49.187Z,31.08
2018-08-19T12:27:20.887Z,30.27
2018-08-19T12:29:49.343Z,32.80
2018-08-19T12:32:25.044Z,31.65
2018-08-19T12:34:55.588Z,30.79
2018-08-19T12:37:25.340Z,30.55
2018-08-19T12:39:54.331Z,30.98
2018-08-19T12:42:22.835Z,29.99
2018-08-19T12:45:09.127Z,30.15
2018-08-19T12:47:37.914Z,31.13
2018-08-19T12:50:11.386Z,31.21
2018-08-19T12:52:39.951Z,32.04
2018-08-19T12:55:10.663Z,31.77
2018-08-19T12:57:40.075Z,31.07
2018-08-19T13:00:25.670Z,31.32
2018-08-19T13:02:54.294Z,32.04
2018-08-19T13:05:23.235Z,32.07
2018-08-19T13:07:51.895Z,31.36
2018-08-19T13:10:20.800Z,30.28
2018-08-19T13:12:56.847Z,31.24
2018-08-19T13:15:28.023Z,32.12
2018-08-19T13:17:56.520Z,31.20
2018-08-19T13:20:24.976Z,30.79
2018-08-19T13:22:58.999Z,30.77
2018-08-19T13:25:27.499Z,29.94
2018-08-19T13:27:55.996Z,28.44
2018-08-19T13:30:24.424Z,30.33
2018-08-19T13:32:53.419Z,30.18
2018-08-19T13:35:21.893Z,30.47
2018-08-19T13:37:50.957Z,30.42
2018-08-19T13:40:19.512Z,28.42
2018-08-19T13:42:48.031Z,29.44
2018-08-19T13:45:22.881Z,27.98
2018-08-19T13:47:52.895Z,28.84
2018-08-19T13:50:21.410Z,27.99
2018-08-19T13:52:49.864Z,27.67
2018-08-19T13:55:19.590Z,26.88
2018-08-19T13:57:48.170Z,27.24
2018-08-19T14:00:19.235Z,27.32
2018-08-19T14:02:48.342Z,26.67
2018-08-19T14:05:16.789Z,26.00
2018-08-19T14:07:45.470Z,26.76
2018-08-19T14:10:15.115Z,27.46
2018-08-19T14:12:43.639Z,27.22
2018-08-19T14:15:12.341Z,25.52
2018-08-19T14:17:40.763Z,26.60
2018-08-19T14:20:10.294Z,26.59
2018-08-19T14:22:38.887Z,26.02
2018-08-19T14:25:08.787Z,26.40
2018-08-19T14:27:37.695Z,26.25
2018-08-19T14:30:07.538Z,26.88
2018-08-19T14:32:38.895Z,25.62
2018-08-19T14:35:07.625Z,25.89
2018-08-19T14:37:36.167Z,26.70
2018-08-19T14:40:06.188Z,27.25
2018-08-19T14:42:34.703Z,26.24
2018-08-19T14:45:03.291Z,26.22
2018-08-19T14:47:31.788Z,27.04
2018-08-19T14:50:00.427Z,26.37
2018-08-19T14:52:29.283Z,25.83
2018-08-19T14:54:57.879Z,26.25
2018-08-19T14:57:26.711Z,27.11
2018-08-19T14:59:55.120Z,27.50
2018-08-19T15:02:23.723Z,27.50
2018-08-19T15:04:52.603Z,27.67
2018-08-19T15:07:21.351Z,26.76
2018-08-19T15:09:52.878Z,26.98
2018-08-19T15:12:22.679Z,27.33
2018-08-19T15:14:51.793Z,28.05
2018-08-19T15:17:20.299Z,27.99
2018-08-19T15:19:51.878Z,28.38
2018-08-19T15:22:20.831Z,27.65
2018-08-19T15:24:49.783Z,27.95
2018-08-19T15:27:18.523Z,28.53
2018-08-19T15:29:48.917Z,27.56
2018-08-19T15:32:17.614Z,29.29
2018-08-19T15:34:46.032Z,28.22
2018-08-19T15:37:14.451Z,28.72
2018-08-19T15:39:42.900Z,27.79
2018-08-19T15:42:11.415Z,27.54
2018-08-19T15:44:39.904Z,28.30
2018-08-19T15:47:08.399Z,29.11
2018-08-19T15:49:36.920Z,27.84
2018-08-19T15:52:05.428Z,28.65
2018-08-19T15:54:33.907Z,28.87
2018-08-19T15:57:03.724Z,27.79
2018-08-19T15:59:37.114Z,29.10
2018-08-19T16:02:05.783Z,28.71
2018-08-19T16:04:34.218Z,29.26
2018-08-19T16:07:02.768Z,28.33
2018-08-19T16:09:31.648Z,29.21
2018-08-19T16:12:00.091Z,30.04
2018-08-19T16:14:33.582Z,29.45
2018-08-19T16:17:03.262Z,30.30
2018-08-19T16:19:31.954Z,30.46
2018-08-19T16:22:01.239Z,29.92
2018-08-19T16:24:29.740Z,30.17
2018-08-19T16:26:58.336Z,31.14
2018-08-19T16:29:26.903Z,31.06
2018-08-19T16:31:55.546Z,31.95
2018-08-19T16:34:23.948Z,30.96
2018-08-19T16:36:52.791Z,31.95
2018-08-19T16:39:21.821Z,32.88
2018-08-19T16:41:50.856Z,32.42
2018-08-19T16:44:19.397Z,32.05
2018-08-19T16:46:47.820Z,32.40
2018-08-19T16:49:16.315Z,32.43
2018-08-19T16:51:44.874Z,32.51
2018-08-19T16:54:13.367Z,33.18
2018-08-19T16:56:41.809Z,32.69
2018-08-19T16:59:10.335Z,32.91
2018-08-19T17:01:38.799Z,32.89
2018-08-19T17:04:07.370Z,34.23
2018-08-19T17:06:38.179Z,33.39
2018-08-19T17:09:08.273Z,34.22
2018-08-19T17:11:36.716Z,34.70
2018-08-19T17:14:05.478Z,34.91
2018-08-19T17:16:34.043Z,33.61
2018-08-19T17:19:02.651Z,35.36
2018-08-19T17:21:31.333Z,36.91
2018-08-19T17:23:59.727Z,37.15
2018-08-19T17:26:28.319Z,36.96
2018-08-19T17:29:04.407Z,37.64
2018-08-19T17:31:33.047Z,37.91
2018-08-19T17:34:01.515Z,37.27
2018-08-19T17:36:35.292Z,37.97
2018-08-19T17:39:03.994Z,37.78
2018-08-19T17:41:32.524Z,38.76
2018-08-19T17:44:03.169Z,37.78
2018-08-19T17:46:31.683Z,38.08
2018-08-19T17:49:00.195Z,39.24
2018-08-19T17:51:36.695Z,38.76
2018-08-19T17:54:13.473Z,39.78
2018-08-19T17:56:42.425Z,39.34
2018-08-19T17:59:10.917Z,40.24
2018-08-19T18:01:43.199Z,39.61
2018-08-19T18:04:11.715Z,40.72
2018-08-19T18:06:40.235Z,40.16
2018-08-19T18:11:40.146Z,40.27
2018-08-19T18:14:09.586Z,40.21
2018-08-19T18:16:38.083Z,40.82
2018-08-19T18:19:06.539Z,41.25
2018-08-19T18:21:37.981Z,40.37
2018-08-19T18:24:06.979Z,40.48
2018-08-19T18:26:35.580Z,41.61
2018-08-19T18:29:04.347Z,41.35
2018-08-19T18:31:32.833Z,41.45
2018-08-19T18:34:02.172Z,40.92
2018-08-19T18:36:32.958Z,41.03
2018-08-19T18:39:01.899Z,42.04
2018-08-19T18:41:34.740Z,41.68
2018-08-19T18:44:05.451Z,43.56
2018-08-19T18:46:34.698Z,43.41
2018-08-19T18:49:19.539Z,43.89
2018-08-19T18:51:49.736Z,44.20
2018-08-19T18:54:36.980Z,44.72
2018-08-19T18:57:08.487Z,45.39
2018-08-19T18:59:41.857Z,46.19
2018-08-19T19:02:10.980Z,46.23
2018-08-19T19:04:40.280Z,47.14
2018-08-19T19:07:09.308Z,47.50
2018-08-19T19:09:43.284Z,48.26
2018-08-19T19:12:12.269Z,48.83
2018-08-19T19:14:41.252Z,49.23
2018-08-19T19:17:10.539Z,49.80
2018-08-19T19:19:54.688Z,49.69
2018-08-19T19:22:23.709Z,50.25
2018-08-19T19:24:53.704Z,50.89
2018-08-19T19:27:22.763Z,50.52
2018-08-19T19:29:57.091Z,51.29
2018-08-19T19:32:26.241Z,50.79
2018-08-19T19:34:55.357Z,51.56
2018-08-19T19:37:25.054Z,51.06
2018-08-19T19:40:00.285Z,50.89
2018-08-19T19:42:29.844Z,50.86
2018-08-19T19:44:59.015Z,51.45
2018-08-19T19:47:29.546Z,51.17
2018-08-19T19:49:59.457Z,52.42
2018-08-19T19:52:29.031Z,53.28
2018-08-19T19:54:58.224Z,53.14
2018-08-19T19:57:27.340Z,53.15
2018-08-19T19:59:56.202Z,53.80
2018-08-19T20:02:29.624Z,54.38
2018-08-19T20:04:59.218Z,54.41
2018-08-19T20:07:28.527Z,54.29
2018-08-19T20:09:58.406Z,54.29
2018-08-19T20:12:29.020Z,54.64
2018-08-19T20:15:00.150Z,54.78
2018-08-19T20:17:29.261Z,54.00
2018-08-19T20:19:58.618Z,52.67
2018-08-19T20:22:27.681Z,51.60
2018-08-19T20:24:57.233Z,51.89
2018-08-19T20:27:26.269Z,52.09
2018-08-19T20:29:55.558Z,55.04
2018-08-19T20:32:24.644Z,55.68
2018-08-19T20:34:53.201Z,55.38
2018-08-19T20:37:24.819Z,56.31
2018-08-19T20:39:53.983Z,56.12
2018-08-19T20:42:22.464Z,57.37
2018-08-19T20:44:51.427Z,58.02
2018-08-19T20:47:19.904Z,58.10
2018-08-19T20:49:48.743Z,57.81
2018-08-19T20:52:17.567Z,58.53
2018-08-19T20:54:46.018Z,59.13
2018-08-19T20:57:14.486Z,58.69
2018-08-19T20:59:43.064Z,58.08
2018-08-19T21:02:11.506Z,58.37
2018-08-19T21:04:39.927Z,57.38
2018-08-19T21:07:08.394Z,57.38
2018-08-19T21:09:36.884Z,57.84
2018-08-19T21:12:05.314Z,59.06
2018-08-19T21:14:33.980Z,58.59
2018-08-19T21:17:04.906Z,59.32
2018-08-19T21:19:33.971Z,59.22
2018-08-19T21:22:02.802Z,59.72
2018-08-19T21:24:31.316Z,59.36
2018-08-19T21:27:01.820Z,59.45
2018-08-19T21:29:31.049Z,59.78
2018-08-19T21:31:59.691Z,59.65
2018-08-19T21:34:28.630Z,59.53
2018-08-19T21:36:57.611Z,59.35
2018-08-19T21:39:26.056Z,59.99
2018-08-19T21:41:55.537Z,61.08
2018-08-19T21:44:24.088Z,61.65
2018-08-19T21:46:52.596Z,61.73
2018-08-19T21:49:21.088Z,62.52
2018-08-19T21:51:49.563Z,62.14
2018-08-19T21:54:18.303Z,62.40
2018-08-19T21:56:46.791Z,62.77
2018-08-19T21:59:29.719Z,62.41
2018-08-19T22:01:59.463Z,63.65
2018-08-19T22:04:28.732Z,63.81
2018-08-19T22:06:57.214Z,64.46
2018-08-19T22:09:36.394Z,63.68
2018-08-19T22:12:06.018Z,63.99
2018-08-19T22:14:34.563Z,63.86
2018-08-19T22:17:08.247Z,64.30
2018-08-19T22:19:36.835Z,64.39
2018-08-19T22:22:05.404Z,64.69
2018-08-19T22:24:33.935Z,65.40
2018-08-19T22:27:07.503Z,65.01
2018-08-19T22:29:36.045Z,64.46
2018-08-19T22:32:04.788Z,65.10
2018-08-19T22:34:33.199Z,65.30
2018-08-19T22:37:02.005Z,65.50
2018-08-19T22:39:30.495Z,64.81
2018-08-19T22:41:58.979Z,65.61
2018-08-19T22:44:27.477Z,65.86
2018-08-19T22:46:55.943Z,66.58
2018-08-19T22:49:27.435Z,66.78
2018-08-19T22:52:00.699Z,66.66
2018-08-19T22:54:29.223Z,66.08
2018-08-19T22:56:57.687Z,66.85
2018-08-19T22:59:26.095Z,66.57
2018-08-19T23:01:54.600Z,66.36
2018-08-19T23:04:23.074Z,68.01
2018-08-19T23:06:51.510Z,68.44
2018-08-19T23:09:20.043Z,67.44
2018-08-19T23:11:48.723Z,68.56
2018-08-19T23:14:28.631Z,68.76
2018-08-19T23:16:57.047Z,69.46
2018-08-19T23:19:25.515Z,68.67
2018-08-19T23:21:54.207Z,68.57
2018-08-19T23:24:22.631Z,68.18
2018-08-19T23:26:51.190Z,68.94
2018-08-19T23:29:19.686Z,68.94
2018-08-19T23:31:48.212Z,70.27
2018-08-19T23:34:16.899Z,69.84
2018-08-19T23:36:45.658Z,70.36
2018-08-19T23:39:14.175Z,70.07
2018-08-19T23:41:42.631Z,70.92
2018-08-19T23:44:11.348Z,72.16
2018-08-19T23:46:39.924Z,71.09
2018-08-19T23:49:08.388Z,72.94
2018-08-19T23:51:37.139Z,72.24
2018-08-19T23:54:05.955Z,71.91
2018-08-19T23:56:34.495Z,71.73
2018-08-19T23:59:03.139Z,70.87
